createdAt,value
2022-09-22T00:01:22.936Z,6.10
2022-09-22T00:03:54.196Z,6.10
2022-09-22T00:06:23.945Z,6.10
2022-09-22T00:08:53.640Z,6.00
2022-09-22T00:11:23.971Z,6.00
2022-09-22T00:13:54.609Z,6.00
2022-09-22T00:16:26.441Z,5.90
2022-09-22T00:18:54.667Z,5.90
2022-09-22T00:21:24.589Z,5.90
2022-09-22T00:23:53.982Z,5.90
2022-09-22T00:26:24.134Z,5.80
2022-09-22T00:28:53.210Z,5.80
2022-09-22T00:31:24.442Z,5.80
2022-09-22T00:33:53.975Z,5.80
2022-09-22T00:36:26.699Z,5.80
2022-09-22T00:38:56.372Z,5.80
2022-09-22T00:41:27.650Z,5.80
2022-09-22T00:44:34.332Z,5.80
2022-09-22T00:47:29.193Z,5.70
2022-09-22T00:50:01.785Z,5.70
2022-09-22T00:52:36.891Z,5.70
2022-09-22T00:55:09.918Z,5.70
2022-09-22T00:57:40.883Z,5.70
2022-09-22T01:00:11.571Z,5.60
2022-09-22T01:02:41.531Z,5.70
2022-09-22T01:05:10.339Z,5.60
2022-09-22T01:07:38.878Z,5.60
2022-09-22T01:10:07.582Z,5.60
2022-09-22T01:12:37.981Z,5.60
2022-09-22T01:15:25.952Z,5.60
2022-09-22T01:18:08.329Z,5.60
2022-09-22T01:21:04.019Z,5.50
2022-09-22T01:24:02.086Z,5.50
2022-09-22T01:26:52.313Z,5.40
2022-09-22T01:29:43.972Z,5.50
2022-09-22T01:32:19.947Z,5.40
2022-09-22T01:34:57.383Z,5.40
2022-09-22T01:37:31.283Z,5.30
2022-09-22T01:40:05.523Z,5.30
2022-09-22T01:42:39.684Z,5.30
2022-09-22T01:45:11.708Z,5.30
2022-09-22T01:47:46.021Z,5.30
2022-09-22T01:50:20.197Z,5.30
2022-09-22T01:52:49.205Z,5.30
2022-09-22T01:55:24.122Z,5.20
2022-09-22T01:57:56.609Z,5.20
2022-09-22T02:00:25.022Z,5.20
2022-09-22T02:02:59.711Z,5.20
2022-09-22T02:05:33.406Z,5.20
2022-09-22T02:08:05.971Z,5.20
2022-09-22T02:10:39.448Z,5.20
2022-09-22T02:13:07.619Z,5.10
2022-09-22T02:15:53.639Z,5.20
2022-09-22T02:18:26.509Z,5.20
2022-09-22T02:20:54.721Z,5.20
2022-09-22T02:23:22.766Z,5.10
2022-09-22T02:25:51.817Z,5.10
2022-09-22T02:28:22.513Z,5.10
2022-09-22T02:31:10.929Z,5.00
2022-09-22T02:33:43.675Z,5.00
2022-09-22T02:36:28.898Z,5.00
2022-09-22T02:39:05.433Z,5.00
2022-09-22T02:41:41.719Z,5.00
2022-09-22T02:44:17.932Z,5.00
2022-09-22T02:46:51.265Z,5.00
2022-09-22T02:49:22.704Z,5.00
2022-09-22T02:51:51.536Z,5.00
2022-09-22T02:54:19.701Z,4.90
2022-09-22T02:56:47.774Z,4.90
2022-09-22T02:59:15.914Z,4.90
2022-09-22T03:01:44.017Z,4.80
2022-09-22T03:04:12.186Z,4.80
2022-09-22T03:06:41.619Z,4.80
2022-09-22T03:09:09.646Z,4.80
2022-09-22T03:11:37.758Z,4.80
2022-09-22T03:14:05.690Z,4.70
2022-09-22T03:16:33.689Z,4.80
2022-09-22T03:19:01.851Z,4.80
2022-09-22T03:21:29.914Z,4.80
2022-09-22T03:23:59.399Z,4.80
2022-09-22T03:26:27.542Z,4.80
2022-09-22T03:28:56.010Z,4.80
2022-09-22T03:31:24.168Z,4.80
2022-09-22T03:33:52.965Z,4.80
2022-09-22T03:36:21.692Z,4.80
2022-09-22T03:38:49.814Z,4.80
2022-09-22T03:41:19.350Z,4.80
2022-09-22T03:43:47.531Z,4.80
2022-09-22T03:46:15.668Z,4.80
2022-09-22T03:48:45.293Z,4.80
2022-09-22T03:51:13.824Z,4.80
2022-09-22T03:53:42.368Z,4.80
2022-09-22T03:56:12.216Z,4.80
2022-09-22T03:58:42.288Z,4.70
2022-09-22T04:01:11.293Z,4.70
2022-09-22T04:03:39.625Z,4.70
2022-09-22T04:06:08.106Z,4.70
2022-09-22T04:08:36.482Z,4.70
2022-09-22T04:11:05.152Z,4.70
2022-09-22T04:13:34.234Z,4.70
2022-09-22T04:16:04.189Z,4.70
2022-09-22T04:18:32.691Z,4.70
2022-09-22T04:21:01.385Z,4.70
2022-09-22T04:23:29.507Z,4.60
2022-09-22T04:25:57.624Z,4.60
2022-09-22T04:28:26.348Z,4.60
2022-09-22T04:30:54.569Z,4.60
2022-09-22T04:33:24.306Z,4.50
2022-09-22T04:35:52.693Z,4.50
2022-09-22T04:38:20.970Z,4.50
2022-09-22T04:40:49.469Z,4.50
2022-09-22T04:43:17.402Z,4.50
2022-09-22T04:45:47.151Z,4.50
2022-09-22T04:48:15.435Z,4.50
2022-09-22T04:50:48.109Z,4.40
2022-09-22T04:53:16.922Z,4.40
2022-09-22T04:55:45.126Z,4.40
2022-09-22T04:58:13.922Z,4.40
2022-09-22T05:00:42.283Z,4.40
2022-09-22T05:03:11.609Z,4.40
2022-09-22T05:05:40.082Z,4.40
2022-09-22T05:08:10.157Z,4.30
2022-09-22T05:10:38.591Z,4.30
2022-09-22T05:13:06.698Z,4.30
2022-09-22T05:15:34.964Z,4.30
2022-09-22T05:18:03.163Z,4.30
2022-09-22T05:20:31.313Z,4.30
2022-09-22T05:22:59.588Z,4.30
2022-09-22T05:25:29.035Z,4.30
2022-09-22T05:27:57.599Z,4.30
2022-09-22T05:30:27.646Z,4.30
2022-09-22T05:32:55.812Z,4.30
2022-09-22T05:35:25.679Z,4.30
2022-09-22T05:37:54.425Z,4.30
2022-09-22T05:40:26.055Z,4.30
2022-09-22T05:42:55.865Z,4.30
2022-09-22T05:45:24.022Z,4.40
2022-09-22T05:47:53.203Z,4.40
2022-09-22T05:50:23.631Z,4.40
2022-09-22T05:52:51.843Z,4.40
2022-09-22T05:55:20.051Z,4.50
2022-09-22T05:57:48.082Z,4.60
2022-09-22T06:00:17.687Z,4.60
2022-09-22T06:02:45.969Z,4.60
2022-09-22T06:08:03.354Z,4.70
2022-09-22T06:10:32.552Z,4.80
2022-09-22T06:13:00.800Z,4.90
2022-09-22T06:15:32.796Z,4.90
2022-09-22T06:18:01.226Z,5.00
2022-09-22T06:20:29.529Z,5.00
2022-09-22T06:22:57.614Z,5.10
2022-09-22T06:25:25.747Z,5.20
2022-09-22T06:28:01.928Z,5.20
2022-09-22T06:30:31.854Z,5.30
2022-09-22T06:33:00.034Z,5.50
2022-09-22T06:35:31.087Z,5.50
2022-09-22T06:37:59.871Z,5.60
2022-09-22T06:40:28.489Z,5.70
2022-09-22T06:43:02.030Z,5.80
2022-09-22T06:45:33.795Z,5.90
2022-09-22T06:48:06.336Z,6.00
2022-09-22T06:50:36.906Z,6.00
2022-09-22T06:53:08.182Z,6.10
2022-09-22T06:55:37.114Z,6.30
2022-09-22T06:58:05.174Z,6.40
2022-09-22T07:00:35.069Z,6.50
2022-09-22T07:03:06.230Z,6.60
2022-09-22T07:05:34.882Z,6.60
2022-09-22T07:08:04.774Z,6.70
2022-09-22T07:10:37.656Z,6.80
2022-09-22T07:13:06.493Z,6.90
2022-09-22T07:15:37.985Z,7.00
2022-09-22T07:18:06.172Z,7.00
2022-09-22T07:20:35.698Z,7.10
2022-09-22T07:23:03.773Z,7.20
2022-09-22T07:25:36.013Z,7.30
2022-09-22T07:28:05.281Z,7.40
2022-09-22T07:30:36.377Z,7.50
2022-09-22T07:33:06.862Z,7.60
2022-09-22T07:35:37.798Z,7.80
2022-09-22T07:38:05.989Z,8.00
2022-09-22T07:40:34.150Z,8.10
2022-09-22T07:43:02.333Z,8.20
2022-09-22T07:45:30.423Z,8.30
2022-09-22T07:48:15.885Z,8.30
2022-09-22T07:50:45.484Z,8.40
2022-09-22T07:53:13.565Z,8.60
2022-09-22T07:55:41.666Z,8.70
2022-09-22T07:58:12.881Z,8.80
2022-09-22T08:00:44.779Z,8.80
2022-09-22T08:03:13.018Z,8.90
2022-09-22T08:05:41.114Z,9.00
2022-09-22T08:08:10.641Z,9.10
2022-09-22T08:10:38.827Z,9.30
2022-09-22T08:13:07.276Z,9.30
2022-09-22T08:15:36.922Z,9.40
2022-09-22T08:18:05.052Z,9.50
2022-09-22T08:20:33.224Z,9.70
2022-09-22T08:23:03.162Z,9.80
2022-09-22T08:25:32.885Z,9.80
2022-09-22T08:28:02.556Z,10.00
2022-09-22T08:30:30.759Z,10.20
2022-09-22T08:33:01.421Z,10.20
2022-09-22T08:35:29.597Z,10.40
2022-09-22T08:37:57.710Z,10.50
2022-09-22T08:40:26.024Z,10.60
2022-09-22T08:42:55.690Z,10.80
2022-09-22T08:45:31.863Z,10.90
2022-09-22T08:48:22.283Z,10.90
2022-09-22T08:51:09.783Z,11.00
2022-09-22T08:53:44.329Z,11.10
2022-09-22T08:56:17.498Z,11.30
2022-09-22T08:58:55.274Z,11.30
2022-09-22T09:01:35.310Z,11.40
2022-09-22T09:04:18.746Z,11.50
2022-09-22T09:06:54.301Z,11.60
2022-09-22T09:09:40.054Z,11.70
2022-09-22T09:12:24.318Z,11.90
2022-09-22T09:15:14.683Z,12.00
2022-09-22T09:17:45.559Z,12.10
2022-09-22T09:20:17.982Z,12.10
2022-09-22T09:22:52.757Z,12.10
2022-09-22T09:25:25.502Z,12.30
2022-09-22T09:28:00.084Z,12.50
2022-09-22T09:30:39.620Z,12.60
2022-09-22T09:33:18.238Z,12.60
2022-09-22T09:35:53.305Z,12.60
2022-09-22T09:38:27.465Z,12.70
2022-09-22T09:41:03.806Z,12.90
2022-09-22T09:43:33.404Z,13.00
2022-09-22T09:46:16.608Z,13.10
2022-09-22T09:48:55.928Z,13.10
2022-09-22T09:51:24.021Z,13.30
2022-09-22T09:53:52.663Z,13.40
2022-09-22T09:56:25.871Z,13.50
2022-09-22T09:59:16.045Z,13.60
2022-09-22T10:01:47.127Z,13.60
2022-09-22T10:04:34.085Z,13.70
2022-09-22T10:07:14.499Z,13.80
2022-09-22T10:09:43.844Z,14.00
2022-09-22T10:12:29.730Z,14.10
2022-09-22T10:14:59.340Z,14.10
2022-09-22T10:17:33.973Z,14.20
2022-09-22T10:20:22.957Z,14.30
2022-09-22T10:22:51.328Z,14.30
2022-09-22T10:25:25.152Z,14.30
2022-09-22T10:28:06.148Z,14.50
2022-09-22T10:30:37.610Z,14.60
2022-09-22T10:33:18.913Z,14.70
2022-09-22T10:35:54.390Z,14.70
2022-09-22T10:38:23.938Z,14.80
2022-09-22T10:40:57.078Z,14.90
2022-09-22T10:43:38.035Z,14.90
2022-09-22T10:46:37.322Z,15.10
2022-09-22T10:49:13.367Z,15.20
2022-09-22T10:51:58.172Z,15.50
2022-09-22T10:54:54.861Z,15.50
2022-09-22T10:57:35.609Z,15.70
2022-09-22T11:00:12.029Z,15.80
2022-09-22T11:03:20.710Z,15.90
2022-09-22T11:06:21.314Z,15.90
2022-09-22T11:09:16.842Z,16.10
2022-09-22T11:12:09.695Z,16.20
2022-09-22T11:14:57.445Z,16.30
2022-09-22T11:17:52.112Z,16.40
2022-09-22T11:20:36.139Z,16.40
2022-09-22T11:23:36.399Z,16.60
2022-09-22T11:26:28.997Z,16.60
2022-09-22T11:29:24.962Z,16.70
2022-09-22T11:32:03.049Z,16.90
2022-09-22T11:35:12.211Z,17.00
2022-09-22T11:37:51.449Z,17.10
2022-09-22T11:40:32.755Z,17.40
2022-09-22T11:43:15.535Z,17.60
2022-09-22T11:45:50.330Z,17.80
2022-09-22T11:48:36.032Z,18.00
2022-09-22T11:51:32.504Z,18.10
2022-09-22T11:54:33.885Z,18.00
2022-09-22T11:57:05.849Z,18.10
2022-09-22T11:59:40.850Z,18.40
2022-09-22T12:04:50.857Z,18.70
2022-09-22T12:07:25.530Z,18.90
2022-09-22T12:09:57.595Z,19.10
2022-09-22T12:15:01.474Z,19.40
2022-09-22T12:17:39.038Z,19.30
2022-09-22T12:20:21.354Z,19.20
2022-09-22T12:23:20.454Z,19.00
2022-09-22T12:25:52.044Z,18.90
2022-09-22T12:28:24.543Z,19.00
2022-09-22T12:31:06.203Z,19.10
2022-09-22T12:33:39.644Z,19.10
2022-09-22T12:36:08.453Z,19.10
2022-09-22T12:38:36.597Z,19.20
2022-09-22T12:41:05.277Z,19.30
2022-09-22T12:43:35.322Z,19.50
2022-09-22T12:46:13.858Z,19.70
2022-09-22T12:48:45.939Z,19.80
2022-09-22T12:51:34.018Z,19.80
2022-09-22T12:54:51.445Z,20.00
2022-09-22T12:57:24.759Z,19.90
2022-09-22T13:00:20.591Z,19.80
2022-09-22T13:02:51.147Z,19.70
2022-09-22T13:05:46.756Z,19.70
2022-09-22T13:08:23.188Z,19.60
2022-09-22T13:10:58.130Z,19.60
2022-09-22T13:13:39.676Z,19.60
2022-09-22T13:16:34.668Z,19.60
2022-09-22T13:19:09.008Z,19.60
2022-09-22T13:21:37.305Z,19.40
2022-09-22T13:24:08.243Z,19.20
2022-09-22T13:26:38.052Z,19.00
2022-09-22T13:29:12.582Z,18.70
2022-09-22T13:31:42.807Z,18.40
2022-09-22T13:34:37.339Z,18.10
2022-09-22T13:37:08.815Z,17.90
2022-09-22T13:39:43.435Z,17.70
2022-09-22T13:42:19.546Z,17.80
2022-09-22T13:44:55.038Z,17.80
2022-09-22T13:47:27.190Z,18.20
2022-09-22T13:50:02.811Z,18.50
2022-09-22T13:52:33.287Z,18.50
2022-09-22T13:55:09.325Z,18.50
2022-09-22T13:57:39.122Z,18.40
2022-09-22T14:00:09.908Z,18.30
2022-09-22T14:02:45.659Z,18.10
2022-09-22T14:05:20.940Z,18.00
2022-09-22T14:08:10.553Z,17.80
2022-09-22T14:10:39.216Z,17.70
2022-09-22T14:13:27.393Z,17.60
2022-09-22T14:15:55.766Z,17.50
2022-09-22T14:18:28.072Z,17.40
2022-09-22T14:20:59.335Z,17.30
2022-09-22T14:23:29.750Z,17.10
2022-09-22T14:26:00.480Z,17.30
2022-09-22T14:28:32.284Z,17.50
2022-09-22T14:31:00.278Z,17.70
2022-09-22T14:33:30.944Z,17.80
2022-09-22T14:36:05.733Z,18.00
2022-09-22T14:38:43.001Z,18.10
2022-09-22T14:41:23.594Z,18.20
2022-09-22T14:43:54.439Z,18.00
2022-09-22T14:46:25.570Z,17.80
2022-09-22T14:48:53.655Z,17.60
2022-09-22T14:51:25.950Z,17.40
2022-09-22T14:54:01.510Z,17.20
2022-09-22T14:56:32.756Z,17.10
2022-09-22T14:59:23.472Z,17.10
2022-09-22T15:02:09.850Z,17.10
2022-09-22T15:04:43.107Z,17.20
2022-09-22T15:07:24.709Z,17.10
2022-09-22T15:09:56.567Z,16.80
2022-09-22T15:12:49.339Z,16.70
2022-09-22T15:15:20.388Z,16.40
2022-09-22T15:18:07.351Z,16.30
2022-09-22T15:20:42.648Z,16.10
2022-09-22T15:23:15.832Z,16.10
2022-09-22T15:25:44.341Z,16.20
2022-09-22T15:28:14.446Z,16.50
2022-09-22T15:30:44.333Z,16.70
2022-09-22T15:33:14.434Z,16.90
2022-09-22T15:35:44.717Z,17.00
2022-09-22T15:38:21.027Z,17.10
2022-09-22T15:40:49.528Z,17.10
2022-09-22T15:43:20.783Z,17.20
2022-09-22T15:45:50.282Z,17.20
2022-09-22T15:48:24.399Z,17.20
2022-09-22T15:50:52.865Z,17.20
2022-09-22T15:53:22.964Z,17.20
2022-09-22T15:55:52.120Z,17.10
2022-09-22T15:58:23.101Z,17.00
2022-09-22T16:00:53.199Z,17.00
2022-09-22T16:03:23.780Z,16.90
2022-09-22T16:05:56.930Z,16.70
2022-09-22T16:08:31.272Z,16.50
2022-09-22T16:11:05.554Z,16.40
2022-09-22T16:13:34.030Z,16.20
2022-09-22T16:16:03.012Z,16.10
2022-09-22T16:18:32.849Z,15.90
2022-09-22T16:21:05.305Z,15.80
2022-09-22T16:23:34.786Z,15.70
2022-09-22T16:26:02.761Z,15.60
2022-09-22T16:28:31.086Z,15.40
2022-09-22T16:31:03.268Z,15.30
2022-09-22T16:33:31.236Z,15.10
2022-09-22T16:35:59.367Z,15.10
2022-09-22T16:38:27.244Z,14.90
2022-09-22T16:41:02.833Z,14.80
2022-09-22T16:43:30.881Z,14.60
2022-09-22T16:46:17.101Z,14.50
2022-09-22T16:48:45.565Z,14.40
2022-09-22T16:51:16.090Z,14.30
2022-09-22T16:53:51.914Z,14.20
2022-09-22T16:56:22.610Z,14.10
2022-09-22T16:58:51.058Z,14.00
2022-09-22T17:01:20.268Z,13.90
2022-09-22T17:03:50.047Z,13.80
2022-09-22T17:06:25.439Z,13.70
2022-09-22T17:08:54.315Z,13.60
2022-09-22T17:11:29.416Z,13.60
2022-09-22T17:14:00.832Z,13.50
2022-09-22T17:16:30.716Z,13.40
2022-09-22T17:19:02.330Z,13.30
2022-09-22T17:21:34.023Z,13.20
2022-09-22T17:24:03.693Z,13.00
2022-09-22T17:26:35.658Z,12.90
2022-09-22T17:29:04.321Z,12.80
2022-09-22T17:31:32.585Z,12.70
2022-09-22T17:34:00.549Z,12.50
2022-09-22T17:36:29.691Z,12.50
2022-09-22T17:38:59.461Z,12.30
2022-09-22T17:41:29.636Z,12.30
2022-09-22T17:44:01.209Z,12.10
2022-09-22T17:46:30.695Z,12.00
2022-09-22T17:49:16.469Z,11.90
2022-09-22T17:52:03.328Z,11.80
2022-09-22T17:54:51.318Z,11.70
2022-09-22T17:57:20.671Z,11.60
2022-09-22T17:59:50.312Z,11.50
2022-09-22T18:02:20.895Z,11.40
2022-09-22T18:04:49.067Z,11.30
2022-09-22T18:07:21.785Z,11.20
2022-09-22T18:09:51.384Z,11.20
2022-09-22T18:12:21.658Z,11.10
2022-09-22T18:14:52.403Z,11.10
2022-09-22T18:17:22.842Z,11.00
2022-09-22T18:19:50.778Z,11.00
2022-09-22T18:22:21.076Z,10.90
2022-09-22T18:24:50.866Z,10.80
2022-09-22T18:27:20.613Z,10.80
2022-09-22T18:29:50.593Z,10.70
2022-09-22T18:32:20.136Z,10.60
2022-09-22T18:34:52.818Z,10.60
2022-09-22T18:37:21.501Z,10.50
2022-09-22T18:39:50.373Z,10.40
2022-09-22T18:42:19.342Z,10.30
2022-09-22T18:44:47.949Z,10.30
2022-09-22T18:47:19.414Z,10.30
2022-09-22T18:49:50.091Z,10.30
2022-09-22T18:52:21.512Z,10.20
2022-09-22T18:54:53.093Z,10.20
2022-09-22T18:57:22.518Z,10.20
2022-09-22T18:59:51.161Z,10.10
2022-09-22T19:02:22.593Z,10.00
2022-09-22T19:04:51.180Z,10.00
2022-09-22T19:07:41.887Z,9.90
2022-09-22T19:10:12.296Z,9.80
2022-09-22T19:12:40.580Z,9.70
2022-09-22T19:15:13.542Z,9.80
2022-09-22T19:17:44.752Z,9.80
2022-09-22T19:20:14.846Z,9.70
2022-09-22T19:22:43.121Z,9.60
2022-09-22T19:25:11.665Z,9.60
2022-09-22T19:27:39.864Z,9.50
2022-09-22T19:30:09.361Z,9.50
2022-09-22T19:32:37.668Z,9.50
2022-09-22T19:35:08.280Z,9.40
2022-09-22T19:37:36.516Z,9.40
2022-09-22T19:40:05.340Z,9.40
2022-09-22T19:42:39.240Z,9.30
2022-09-22T19:45:08.692Z,9.30
2022-09-22T19:47:36.764Z,9.30
2022-09-22T19:50:08.009Z,9.20
2022-09-22T19:52:36.410Z,9.20
2022-09-22T19:55:04.724Z,9.10
2022-09-22T19:57:32.953Z,9.10
2022-09-22T20:00:00.934Z,9.10
2022-09-22T20:02:28.917Z,9.00
2022-09-22T20:04:56.996Z,9.00
2022-09-22T20:07:28.384Z,9.00
2022-09-22T20:09:57.220Z,9.00
2022-09-22T20:12:25.249Z,8.90
2022-09-22T20:14:54.530Z,8.90
2022-09-22T20:17:24.058Z,8.90
2022-09-22T20:19:52.186Z,8.80
2022-09-22T20:22:25.165Z,8.80
2022-09-22T20:24:57.386Z,8.70
2022-09-22T20:27:27.901Z,8.70
2022-09-22T20:29:57.626Z,8.70
2022-09-22T20:32:26.411Z,8.70
2022-09-22T20:34:55.612Z,8.60
2022-09-22T20:37:24.917Z,8.50
2022-09-22T20:39:54.417Z,8.50
2022-09-22T20:42:23.308Z,8.50
2022-09-22T20:44:51.636Z,8.50
2022-09-22T20:47:21.226Z,8.50
2022-09-22T20:49:51.992Z,8.50
2022-09-22T20:52:21.184Z,8.40
2022-09-22T20:54:49.628Z,8.40
2022-09-22T20:57:19.106Z,8.30
2022-09-22T20:59:47.669Z,8.20
2022-09-22T21:02:17.017Z,8.20
2022-09-22T21:04:45.041Z,8.20
2022-09-22T21:07:15.814Z,8.20
2022-09-22T21:10:02.414Z,8.10
2022-09-22T21:12:31.890Z,8.10
2022-09-22T21:15:00.093Z,8.00
2022-09-22T21:17:29.774Z,8.00
2022-09-22T21:19:58.216Z,8.00
2022-09-22T21:22:27.986Z,8.00
2022-09-22T21:25:00.868Z,8.00
2022-09-22T21:27:30.540Z,8.00
2022-09-22T21:30:01.801Z,7.90
2022-09-22T21:32:31.266Z,7.90
2022-09-22T21:35:00.110Z,7.80
2022-09-22T21:37:28.211Z,7.80
2022-09-22T21:39:56.235Z,7.80
2022-09-22T21:42:24.259Z,7.80
2022-09-22T21:44:52.413Z,7.80
2022-09-22T21:47:21.808Z,7.70
2022-09-22T21:49:50.359Z,7.70
2022-09-22T21:52:18.421Z,7.70
2022-09-22T21:54:46.570Z,7.70
2022-09-22T21:57:14.683Z,7.70
2022-09-22T21:59:42.601Z,7.70
2022-09-22T22:02:10.613Z,7.70
2022-09-22T22:04:40.631Z,7.60
2022-09-22T22:07:08.674Z,7.60
2022-09-22T22:09:36.586Z,7.60
2022-09-22T22:12:04.578Z,7.50
2022-09-22T22:14:33.338Z,7.50
2022-09-22T22:17:02.180Z,7.50
2022-09-22T22:19:30.247Z,7.40
2022-09-22T22:21:59.567Z,7.50
2022-09-22T22:24:37.020Z,7.40
2022-09-22T22:27:06.842Z,7.40
2022-09-22T22:29:38.482Z,7.30
2022-09-22T22:32:08.917Z,7.30
2022-09-22T22:34:37.883Z,7.20
2022-09-22T22:37:10.099Z,7.30
2022-09-22T22:39:38.249Z,7.20
2022-09-22T22:42:07.346Z,7.30
2022-09-22T22:44:36.057Z,7.20
2022-09-22T22:47:05.173Z,7.20
2022-09-22T22:49:33.599Z,7.30
2022-09-22T22:52:01.764Z,7.20
2022-09-22T22:54:31.292Z,7.20
2022-09-22T22:56:59.440Z,7.20
2022-09-22T22:59:27.618Z,7.10
2022-09-22T23:01:55.857Z,7.10
2022-09-22T23:04:24.106Z,7.10
2022-09-22T23:06:52.102Z,7.10
2022-09-22T23:09:19.977Z,7.10
2022-09-22T23:11:49.446Z,7.10
2022-09-22T23:14:17.575Z,7.10
2022-09-22T23:16:49.398Z,7.10
2022-09-22T23:19:18.664Z,7.10
2022-09-22T23:21:47.228Z,7.00
2022-09-22T23:24:16.787Z,7.00
2022-09-22T23:26:45.109Z,7.00
2022-09-22T23:29:15.218Z,7.00
2022-09-22T23:31:43.583Z,6.90
2022-09-22T23:34:11.737Z,6.90
2022-09-22T23:36:40.435Z,6.90
2022-09-22T23:39:08.742Z,6.90
2022-09-22T23:41:37.914Z,6.90
2022-09-22T23:44:07.250Z,6.90
2022-09-22T23:46:38.315Z,6.90
2022-09-22T23:49:06.781Z,6.90
2022-09-22T23:51:34.876Z,6.90
2022-09-22T23:54:02.985Z,6.90
2022-09-22T23:56:31.095Z,6.90
2022-09-22T23:58:59.211Z,6.90
